メインページ
METAR-TAF:

METAR-TAF

空港 :

ジンナー国際空港

カラチ, パキスタン

緯度: 24-54N, 経度: 067-08E, 海抜: 21m

現時点の気象観測

当レポートは32分前の11:55(UTC)に作成
南西の風 5kt
気温 33°C
湿度 23%
気圧 1014 hPa
視程: 7000m

METAR: OPKC 211155Z 23005KT 7000 NSC 33/09 Q1014 NOSIG

時間: 17:27 (12:27 UTC)

予報

当レポートは2時間27分前の10:00(UTC)に作成
予報は21日の 12時(UTC)から 22日の 18時(UTC)まで有効
南西の風 7kt
視程: 7000m
時(UTC)から
北/北東の風 5kt
視程: 5000m
煙霧
22日の 01時(UTC)から 22日の 05時(UTC)まで一時的に
変向風 3kt
視程: 3000m
時(UTC)から
西/南西の風 5kt、最大15ktの突風を伴う
視程: 7000m

TAF: OPKC 211000Z 2112/2218 23007KT 7000 NSC FM 211800 03005KT 5000 HZ NSC TEMPO 2201/2205 VRB03KT 3000 FU NSC FM 220900 24005G15KT 7000 NSC

4,000以上の空港の気象観測と天気予報(METAR報とTAF報)

利用可能な観測所は地図上に黄色い丸と赤い丸で示す。

丸の上にカーソルを重ねると観測所名を参照できる。

次にクリックすると気象観測と天気予報を参照できる。

マップの切り替え:黒色「×」印の緑ボタンをクリックして拡大、「-」印の緑ボタンをクリックして縮小、緑色の三角印をクリックして隣りの地図に切り替え


METAR-TAF: